createdAt,value
2022-09-23T00:00:49.522Z,5.20
2022-09-23T00:03:16.934Z,4.80
2022-09-23T00:05:44.088Z,4.20
2022-09-23T00:08:12.284Z,5.00
2022-09-23T00:10:40.059Z,4.37
2022-09-23T00:13:07.095Z,4.17
2022-09-23T00:15:38.847Z,5.03
2022-09-23T00:18:05.703Z,5.07
2022-09-23T00:20:34.186Z,5.10
2022-09-23T00:23:01.495Z,4.50
2022-09-23T00:25:29.770Z,4.27
2022-09-23T00:27:56.902Z,4.80
2022-09-23T00:30:23.724Z,5.23
2022-09-23T00:32:50.474Z,4.90
2022-09-23T00:35:17.247Z,5.07
2022-09-23T00:37:43.783Z,5.17
2022-09-23T00:40:12.678Z,4.50
2022-09-23T00:42:47.411Z,5.00
2022-09-23T00:45:14.155Z,5.13
2022-09-23T00:47:54.814Z,4.10
2022-09-23T00:50:26.793Z,4.50
2022-09-23T00:52:56.855Z,4.50
2022-09-23T00:55:30.298Z,4.03
2022-09-23T00:58:01.443Z,4.47
2022-09-23T01:00:28.049Z,4.63
2022-09-23T01:02:55.065Z,4.57
2022-09-23T01:05:21.879Z,4.47
2022-09-23T01:07:50.262Z,4.63
2022-09-23T01:10:18.569Z,4.97
2022-09-23T01:13:08.411Z,4.63
2022-09-23T01:15:39.179Z,4.63
2022-09-23T01:18:12.767Z,4.03
2022-09-23T01:20:51.115Z,5.43
2022-09-23T01:23:20.706Z,4.53
2022-09-23T01:26:00.928Z,4.60
2022-09-23T01:28:54.280Z,4.63
2022-09-23T01:31:49.010Z,4.60
2022-09-23T01:34:26.357Z,4.20
2022-09-23T01:37:04.176Z,5.40
2022-09-23T01:39:39.499Z,4.47
2022-09-23T01:42:17.397Z,4.70
2022-09-23T01:44:51.305Z,6.00
2022-09-23T01:47:25.007Z,4.70
2022-09-23T01:49:53.498Z,4.67
2022-09-23T01:52:54.774Z,5.33
2022-09-23T01:55:29.373Z,5.30
2022-09-23T01:58:04.912Z,5.27
2022-09-23T02:00:37.367Z,5.27
2022-09-23T02:03:21.206Z,4.97
2022-09-23T02:06:13.339Z,4.20
2022-09-23T02:09:00.404Z,5.00
2022-09-23T02:11:27.498Z,5.20
2022-09-23T02:14:03.761Z,4.93
2022-09-23T02:16:39.432Z,5.10
2022-09-23T02:19:13.731Z,5.00
2022-09-23T02:21:44.439Z,5.63
2022-09-23T02:24:15.630Z,6.03
2022-09-23T02:26:54.242Z,4.90
2022-09-23T02:29:41.441Z,4.97
2022-09-23T02:32:16.797Z,5.70
2022-09-23T02:35:15.699Z,5.30
2022-09-23T02:37:47.630Z,5.23
2022-09-23T02:40:27.836Z,5.33
2022-09-23T02:43:13.074Z,5.17
2022-09-23T02:45:39.803Z,5.37
2022-09-23T02:48:35.169Z,5.50
2022-09-23T02:51:03.683Z,5.10
2022-09-23T02:53:34.828Z,5.53
2022-09-23T02:56:02.552Z,5.47
2022-09-23T02:58:30.036Z,5.77
2022-09-23T03:01:11.108Z,5.43
2022-09-23T03:04:06.776Z,5.47
2022-09-23T03:07:06.268Z,5.80
2022-09-23T03:09:40.242Z,6.07
2022-09-23T03:12:22.568Z,5.77
2022-09-23T03:15:02.391Z,5.27
2022-09-23T03:17:39.082Z,5.80
2022-09-23T03:20:15.438Z,5.60
2022-09-23T03:22:54.661Z,6.30
2022-09-23T03:25:25.511Z,6.17
2022-09-23T03:27:57.648Z,6.10
2022-09-23T03:30:26.499Z,6.40
2022-09-23T03:32:55.981Z,6.03
2022-09-23T03:35:29.566Z,6.10
2022-09-23T03:38:17.493Z,6.43
2022-09-23T03:40:47.818Z,6.20
2022-09-23T03:43:14.550Z,6.40
2022-09-23T03:45:42.691Z,5.93
2022-09-23T03:48:09.540Z,6.30
2022-09-23T03:50:36.395Z,7.00
2022-09-23T03:53:03.010Z,6.33
2022-09-23T03:55:29.536Z,6.57
2022-09-23T03:57:56.865Z,6.80
2022-09-23T04:00:23.602Z,6.00
2022-09-23T04:02:50.163Z,5.80
2022-09-23T04:05:17.966Z,6.63
2022-09-23T04:07:44.966Z,6.43
2022-09-23T04:10:11.819Z,6.37
2022-09-23T04:12:38.521Z,6.70
2022-09-23T04:15:05.704Z,6.67
2022-09-23T04:17:32.256Z,6.57
2022-09-23T04:19:58.795Z,6.37
2022-09-23T04:22:25.345Z,6.37
2022-09-23T04:24:52.142Z,9.20
2022-09-23T04:27:18.732Z,10.77
2022-09-23T04:29:45.289Z,7.00
2022-09-23T04:32:11.930Z,7.10
2022-09-23T04:34:38.557Z,6.53
2022-09-23T04:37:05.204Z,6.20
2022-09-23T04:39:31.964Z,6.87
2022-09-23T04:41:59.684Z,6.60
2022-09-23T04:44:28.137Z,6.67
2022-09-23T04:46:54.866Z,6.93
2022-09-23T04:49:21.691Z,6.13
2022-09-23T04:51:48.345Z,6.67
2022-09-23T04:54:15.166Z,6.87
2022-09-23T04:56:42.232Z,6.20
2022-09-23T04:59:08.995Z,6.63
2022-09-23T05:01:36.606Z,6.37
2022-09-23T05:04:07.297Z,6.97
2022-09-23T05:06:35.586Z,6.47
2022-09-23T05:09:04.681Z,6.87
2022-09-23T05:11:31.725Z,7.80
2022-09-23T05:13:58.731Z,7.03
2022-09-23T05:16:26.196Z,7.10
2022-09-23T05:18:53.426Z,6.67
2022-09-23T05:21:22.967Z,7.10
2022-09-23T05:23:55.447Z,6.77
2022-09-23T05:26:25.359Z,6.53
2022-09-23T05:28:53.004Z,6.53
2022-09-23T05:31:21.900Z,7.87
2022-09-23T05:33:54.757Z,7.40
2022-09-23T05:36:23.139Z,7.73
2022-09-23T05:38:50.883Z,7.67
2022-09-23T05:41:19.346Z,8.60
2022-09-23T05:43:45.928Z,7.90
2022-09-23T05:46:18.500Z,8.83
2022-09-23T05:48:48.079Z,8.57
2022-09-23T05:51:34.398Z,8.17
2022-09-23T05:54:04.036Z,7.70
2022-09-23T05:56:32.390Z,8.33
2022-09-23T05:59:01.701Z,8.77
2022-09-23T06:01:33.875Z,8.50
2022-09-23T06:04:02.494Z,8.43
2022-09-23T06:06:39.365Z,7.53
2022-09-23T06:09:08.300Z,8.07
2022-09-23T06:11:36.227Z,9.27
2022-09-23T06:14:03.941Z,8.10
2022-09-23T06:16:33.486Z,8.73
2022-09-23T06:19:05.821Z,8.90
2022-09-23T06:21:35.278Z,8.57
2022-09-23T06:24:02.974Z,8.87
2022-09-23T06:26:33.880Z,9.47
2022-09-23T06:29:02.797Z,8.00
2022-09-23T06:31:30.739Z,8.80
2022-09-23T06:34:08.375Z,8.47
2022-09-23T06:36:43.226Z,8.53
2022-09-23T06:39:11.544Z,9.50
2022-09-23T06:41:38.407Z,8.57
2022-09-23T06:44:05.048Z,8.23
2022-09-23T06:46:31.915Z,8.13
2022-09-23T06:48:59.303Z,8.80
2022-09-23T06:51:25.903Z,7.87
2022-09-23T06:53:52.959Z,8.27
2022-09-23T06:56:22.050Z,8.77
2022-09-23T06:58:48.771Z,9.03
2022-09-23T07:01:16.832Z,10.20
2022-09-23T07:03:44.869Z,10.00
2022-09-23T07:06:11.834Z,9.13
2022-09-23T07:08:38.616Z,8.93
2022-09-23T07:11:07.052Z,8.73
2022-09-23T07:13:34.366Z,7.80
2022-09-23T07:16:02.255Z,8.83
2022-09-23T07:18:36.902Z,10.60
2022-09-23T07:21:07.032Z,10.50
2022-09-23T07:23:34.152Z,10.67
2022-09-23T07:26:01.145Z,9.80
2022-09-23T07:28:29.232Z,9.17
2022-09-23T07:31:00.288Z,8.50
2022-09-23T07:33:33.036Z,7.63
2022-09-23T07:36:04.884Z,6.73
2022-09-23T07:38:31.489Z,7.23
2022-09-23T07:41:06.933Z,7.37
2022-09-23T07:43:33.716Z,7.70
2022-09-23T07:46:16.478Z,6.97
2022-09-23T07:48:44.594Z,7.27
2022-09-23T07:51:35.959Z,7.20
2022-09-23T07:54:05.423Z,7.50
2022-09-23T07:56:31.974Z,7.50
2022-09-23T07:59:01.831Z,7.37
2022-09-23T08:01:31.705Z,8.60
2022-09-23T08:04:00.551Z,7.60
2022-09-23T08:06:27.083Z,8.43
2022-09-23T08:08:53.826Z,7.50
2022-09-23T08:11:20.720Z,7.80
2022-09-23T08:13:47.823Z,7.80
2022-09-23T08:16:14.436Z,7.60
2022-09-23T08:18:45.012Z,7.37
2022-09-23T08:21:11.765Z,6.73
2022-09-23T08:23:38.681Z,6.90
2022-09-23T08:26:11.788Z,7.93
2022-09-23T08:28:41.162Z,6.80
2022-09-23T08:31:08.474Z,7.07
2022-09-23T08:33:35.064Z,7.17
2022-09-23T08:36:03.165Z,7.90
2022-09-23T08:38:30.052Z,7.00
2022-09-23T08:41:09.364Z,7.37
2022-09-23T08:43:37.491Z,6.90
2022-09-23T08:46:10.801Z,7.20
2022-09-23T08:48:43.893Z,7.77
2022-09-23T08:51:26.239Z,7.47
2022-09-23T08:53:53.022Z,7.67
2022-09-23T08:56:23.049Z,8.10
2022-09-23T08:59:05.677Z,8.43
2022-09-23T09:01:49.582Z,8.10
2022-09-23T09:04:16.127Z,8.10
2022-09-23T09:07:24.621Z,8.20
2022-09-23T09:09:55.154Z,8.77
2022-09-23T09:12:27.670Z,9.20
2022-09-23T09:14:59.903Z,7.90
2022-09-23T09:17:26.456Z,9.13
2022-09-23T09:20:26.296Z,8.00
2022-09-23T09:22:59.905Z,8.27
2022-09-23T09:25:34.288Z,7.80
2022-09-23T09:28:01.475Z,7.83
2022-09-23T09:30:28.367Z,7.37
2022-09-23T09:33:03.004Z,7.70
2022-09-23T09:35:42.176Z,7.17
2022-09-23T09:38:08.881Z,7.23
2022-09-23T09:40:47.518Z,7.23
2022-09-23T09:43:26.220Z,8.00
2022-09-23T09:46:26.675Z,7.37
2022-09-23T09:49:02.284Z,7.13
2022-09-23T09:51:29.531Z,7.17
2022-09-23T09:54:24.726Z,7.40
2022-09-23T09:56:51.624Z,7.30
2022-09-23T09:59:25.564Z,6.83
2022-09-23T10:02:13.718Z,6.20
2022-09-23T10:04:41.292Z,6.60
2022-09-23T10:07:15.993Z,6.70
2022-09-23T10:09:51.000Z,6.40
2022-09-23T10:12:20.478Z,6.30
2022-09-23T10:14:52.042Z,6.80
2022-09-23T10:17:24.472Z,7.20
2022-09-23T10:20:00.431Z,6.00
2022-09-23T10:22:34.124Z,5.80
2022-09-23T10:25:07.481Z,6.50
2022-09-23T10:27:36.383Z,6.73
2022-09-23T10:30:23.407Z,6.73
2022-09-23T10:32:51.883Z,6.17
2022-09-23T10:35:24.563Z,6.47
2022-09-23T10:38:10.673Z,6.40
2022-09-23T10:40:58.992Z,5.77
2022-09-23T10:43:47.460Z,6.07
2022-09-23T10:46:53.067Z,5.83
2022-09-23T10:50:10.351Z,6.40
2022-09-23T10:53:00.570Z,5.70
2022-09-23T10:55:51.922Z,5.83
2022-09-23T10:58:18.415Z,6.07
2022-09-23T11:00:55.255Z,5.87
2022-09-23T11:03:56.756Z,6.10
2022-09-23T11:06:48.071Z,5.60
2022-09-23T11:09:26.751Z,5.67
2022-09-23T11:12:27.349Z,5.83
2022-09-23T11:15:12.318Z,5.90
2022-09-23T11:17:55.863Z,5.60
2022-09-23T11:20:36.711Z,5.20
2022-09-23T11:23:28.122Z,4.83
2022-09-23T11:26:09.638Z,5.43
2022-09-23T11:28:58.071Z,4.93
2022-09-23T11:31:57.364Z,5.27
2022-09-23T11:35:13.630Z,5.57
2022-09-23T11:37:52.450Z,5.60
2022-09-23T11:40:35.083Z,5.07
2022-09-23T11:43:11.430Z,6.30
2022-09-23T11:45:55.024Z,4.73
2022-09-23T11:48:39.912Z,5.30
2022-09-23T11:51:16.941Z,5.43
2022-09-23T11:54:04.951Z,5.43
2022-09-23T11:56:45.468Z,5.33
2022-09-23T11:59:39.115Z,5.57
2022-09-23T12:02:26.886Z,5.30
2022-09-23T12:05:09.334Z,4.90
2022-09-23T12:07:59.866Z,5.47
2022-09-23T12:10:42.297Z,5.40
2022-09-23T12:13:20.694Z,6.27
2022-09-23T12:16:12.105Z,5.00
2022-09-23T12:18:51.209Z,5.27
2022-09-23T12:24:32.300Z,4.73
2022-09-23T12:27:02.949Z,4.47
2022-09-23T12:29:32.348Z,5.47
2022-09-23T12:31:59.789Z,4.80
2022-09-23T12:34:35.959Z,5.30
2022-09-23T12:37:04.153Z,4.93
2022-09-23T12:39:37.256Z,4.90
2022-09-23T12:42:06.840Z,4.77
2022-09-23T12:44:44.280Z,4.00
2022-09-23T12:47:26.021Z,4.70
2022-09-23T12:49:53.224Z,4.13
2022-09-23T12:52:19.717Z,4.20
2022-09-23T12:54:49.018Z,4.43
2022-09-23T12:57:35.335Z,4.37
2022-09-23T13:00:14.253Z,4.23
2022-09-23T13:03:13.989Z,4.27
2022-09-23T13:06:06.469Z,3.80
2022-09-23T13:08:37.035Z,4.17
2022-09-23T13:11:08.556Z,3.83
2022-09-23T13:13:44.454Z,4.07
2022-09-23T13:16:41.933Z,3.47
2022-09-23T13:19:27.185Z,3.57
2022-09-23T13:21:53.650Z,3.60
2022-09-23T13:24:23.285Z,3.80
2022-09-23T13:26:53.504Z,2.93
2022-09-23T13:29:37.891Z,3.40
2022-09-23T13:32:06.112Z,3.20
2022-09-23T13:34:34.701Z,3.90
2022-09-23T13:37:23.126Z,3.63
2022-09-23T13:39:50.585Z,3.67
2022-09-23T13:42:29.151Z,3.43
2022-09-23T13:45:00.434Z,3.30
2022-09-23T13:47:30.219Z,3.87
2022-09-23T13:49:57.552Z,3.10
2022-09-23T13:52:31.941Z,3.50
2022-09-23T13:54:58.655Z,3.30
2022-09-23T13:57:26.747Z,3.37
2022-09-23T13:59:53.668Z,3.77
2022-09-23T14:02:20.285Z,3.43
2022-09-23T14:04:46.951Z,3.30
2022-09-23T14:07:15.581Z,2.70
2022-09-23T14:11:01.986Z,3.47
2022-09-23T14:13:36.820Z,2.93
2022-09-23T14:16:04.250Z,3.00
2022-09-23T14:18:38.823Z,3.27
2022-09-23T14:21:38.753Z,3.27
2022-09-23T14:24:22.219Z,3.27
2022-09-23T14:27:15.590Z,3.53
2022-09-23T14:29:47.881Z,3.30
2022-09-23T14:32:19.221Z,3.20
2022-09-23T14:34:53.833Z,2.90
2022-09-23T14:37:57.367Z,2.73
2022-09-23T14:40:34.356Z,3.50
2022-09-23T14:43:11.393Z,2.70
2022-09-23T14:45:40.775Z,3.20
2022-09-23T14:48:16.634Z,3.20
2022-09-23T14:50:50.553Z,2.93
2022-09-23T14:53:18.003Z,2.83
2022-09-23T14:55:52.761Z,3.27
2022-09-23T14:58:23.103Z,2.80
2022-09-23T15:00:54.194Z,2.70
2022-09-23T15:03:21.567Z,2.90
2022-09-23T15:05:50.994Z,2.60
2022-09-23T15:08:23.087Z,2.93
2022-09-23T15:10:50.361Z,2.67
2022-09-23T15:13:21.145Z,2.63
2022-09-23T15:15:48.197Z,3.30
2022-09-23T15:18:19.286Z,2.97
2022-09-23T15:20:54.229Z,2.73
2022-09-23T15:23:39.830Z,2.80
2022-09-23T15:26:18.028Z,2.67
2022-09-23T15:28:45.662Z,2.60
2022-09-23T15:31:15.134Z,3.00
2022-09-23T15:33:44.267Z,2.90
2022-09-23T15:36:23.396Z,3.17
2022-09-23T15:38:50.166Z,3.30
2022-09-23T15:41:17.818Z,3.27
2022-09-23T15:43:44.629Z,3.00
2022-09-23T15:46:19.275Z,3.10
2022-09-23T15:48:58.336Z,2.97
2022-09-23T15:51:26.636Z,2.80
2022-09-23T15:53:54.941Z,3.07
2022-09-23T15:56:22.816Z,2.70
2022-09-23T15:58:49.502Z,2.50
2022-09-23T16:01:24.337Z,2.90
2022-09-23T16:03:50.925Z,3.00
2022-09-23T16:06:17.573Z,2.53
2022-09-23T16:08:44.110Z,2.77
2022-09-23T16:11:19.562Z,2.97
2022-09-23T16:13:46.781Z,2.87
2022-09-23T16:16:13.577Z,2.70
2022-09-23T16:18:42.354Z,3.00
2022-09-23T16:21:13.159Z,2.80
2022-09-23T16:23:43.724Z,3.03
2022-09-23T16:26:22.574Z,3.90
2022-09-23T16:28:50.822Z,4.80
2022-09-23T16:31:18.257Z,3.10
2022-09-23T16:33:46.095Z,2.90
2022-09-23T16:36:27.329Z,3.10
2022-09-23T16:38:55.643Z,3.40
2022-09-23T16:41:28.916Z,3.23
2022-09-23T16:43:56.348Z,2.80
2022-09-23T16:46:27.142Z,3.07
2022-09-23T16:48:53.926Z,3.23
2022-09-23T16:51:26.639Z,3.43
2022-09-23T16:53:55.452Z,3.17
2022-09-23T16:56:28.431Z,3.37
2022-09-23T16:58:56.554Z,3.70
2022-09-23T17:01:47.016Z,3.27
2022-09-23T17:04:15.863Z,6.10
2022-09-23T17:06:50.272Z,7.23
2022-09-23T17:09:18.892Z,7.53
2022-09-23T17:11:49.080Z,7.40
2022-09-23T17:14:16.493Z,5.90
2022-09-23T17:16:43.817Z,6.37
2022-09-23T17:19:12.023Z,4.70
2022-09-23T17:21:39.208Z,4.20
2022-09-23T17:24:06.256Z,3.87
2022-09-23T17:26:33.037Z,3.40
2022-09-23T17:29:00.981Z,4.00
2022-09-23T17:31:28.064Z,3.50
2022-09-23T17:33:54.881Z,3.80
2022-09-23T17:36:21.655Z,3.80
2022-09-23T17:38:49.634Z,3.57
2022-09-23T17:41:18.080Z,3.60
2022-09-23T17:43:45.599Z,3.40
2022-09-23T17:46:14.866Z,3.30
2022-09-23T17:48:43.373Z,3.60
2022-09-23T17:51:14.170Z,4.00
2022-09-23T17:53:43.253Z,3.90
2022-09-23T17:56:19.059Z,3.57
2022-09-23T17:58:47.646Z,3.83
2022-09-23T18:01:17.620Z,3.50
2022-09-23T18:03:44.413Z,3.93
2022-09-23T18:06:18.022Z,3.50
2022-09-23T18:08:46.445Z,3.67
2022-09-23T18:11:20.497Z,3.30
2022-09-23T18:13:51.739Z,3.57
2022-09-23T18:16:19.356Z,3.63
2022-09-23T18:18:57.223Z,3.83
2022-09-23T18:21:26.361Z,3.77
2022-09-23T18:23:52.947Z,3.90
2022-09-23T18:26:24.798Z,4.00
2022-09-23T18:29:00.836Z,4.13
2022-09-23T18:31:29.150Z,3.87
2022-09-23T18:33:55.977Z,3.37
2022-09-23T18:36:24.090Z,4.00
2022-09-23T18:38:51.359Z,4.30
2022-09-23T18:41:18.745Z,5.57
2022-09-23T18:43:48.567Z,4.07
2022-09-23T18:46:22.747Z,4.33
2022-09-23T18:49:08.937Z,4.50
2022-09-23T18:51:38.584Z,3.90
2022-09-23T18:54:07.707Z,4.03
2022-09-23T18:56:44.600Z,4.70
2022-09-23T18:59:17.812Z,4.27
2022-09-23T19:01:45.972Z,4.03
2022-09-23T19:04:14.217Z,4.23
2022-09-23T19:06:41.055Z,4.03
2022-09-23T19:09:07.912Z,4.10
2022-09-23T19:11:36.371Z,3.70
2022-09-23T19:14:06.062Z,3.50
2022-09-23T19:16:34.882Z,3.43
2022-09-23T19:19:02.166Z,3.73
2022-09-23T19:21:29.954Z,3.93
2022-09-23T19:24:05.692Z,3.73
2022-09-23T19:26:35.192Z,3.80
2022-09-23T19:29:04.343Z,3.80
2022-09-23T19:31:34.401Z,3.40
2022-09-23T19:34:10.823Z,4.10
2022-09-23T19:36:40.898Z,4.00
2022-09-23T19:39:19.514Z,3.70
2022-09-23T19:41:46.613Z,3.70
2022-09-23T19:44:14.158Z,3.50
2022-09-23T19:46:44.605Z,4.00
2022-09-23T19:49:11.742Z,3.70
2022-09-23T19:51:39.519Z,4.00
2022-09-23T19:54:08.041Z,4.00
2022-09-23T19:56:35.369Z,3.60
2022-09-23T19:59:05.947Z,3.87
2022-09-23T20:01:33.578Z,4.20
2022-09-23T20:04:00.688Z,4.10
2022-09-23T20:06:32.587Z,3.80
2022-09-23T20:09:00.924Z,4.43
2022-09-23T20:11:28.970Z,3.90
2022-09-23T20:14:02.242Z,3.70
2022-09-23T20:16:32.486Z,4.60
2022-09-23T20:19:00.358Z,4.37
2022-09-23T20:21:29.494Z,5.73
2022-09-23T20:23:57.171Z,5.80
2022-09-23T20:26:42.675Z,6.30
2022-09-23T20:29:10.775Z,4.97
2022-09-23T20:31:41.792Z,4.07
2022-09-23T20:34:10.805Z,4.23
2022-09-23T20:36:40.933Z,4.10
2022-09-23T20:39:08.036Z,3.93
2022-09-23T20:41:37.374Z,3.90
2022-09-23T20:44:07.085Z,4.40
2022-09-23T20:46:34.548Z,3.77
2022-09-23T20:49:02.069Z,4.53
2022-09-23T20:51:28.787Z,4.30
2022-09-23T20:53:55.906Z,4.77
2022-09-23T20:56:23.366Z,4.27
2022-09-23T20:58:52.234Z,4.30
2022-09-23T21:01:19.449Z,4.47
2022-09-23T21:03:48.628Z,4.43
2022-09-23T21:06:19.053Z,4.20
2022-09-23T21:08:46.287Z,4.40
2022-09-23T21:11:15.617Z,4.03
2022-09-23T21:13:47.262Z,3.97
2022-09-23T21:16:16.252Z,4.27
2022-09-23T21:18:44.216Z,4.13
2022-09-23T21:21:12.343Z,4.50
2022-09-23T21:23:40.467Z,4.50
2022-09-23T21:26:09.179Z,4.83
2022-09-23T21:28:38.072Z,4.43
2022-09-23T21:31:07.782Z,4.70
2022-09-23T21:33:36.687Z,4.40
2022-09-23T21:36:05.193Z,4.27
2022-09-23T21:38:38.994Z,4.10
2022-09-23T21:41:07.816Z,4.50
2022-09-23T21:43:37.377Z,4.80
2022-09-23T21:46:09.726Z,4.40
2022-09-23T21:48:38.019Z,4.53
2022-09-23T21:51:08.283Z,4.60
2022-09-23T21:53:39.215Z,4.07
2022-09-23T21:56:09.969Z,4.93
2022-09-23T21:58:37.837Z,4.80
2022-09-23T22:01:12.362Z,4.63
2022-09-23T22:03:39.669Z,4.70
2022-09-23T22:06:09.509Z,4.63
2022-09-23T22:08:39.320Z,4.47
2022-09-23T22:11:29.934Z,4.87
2022-09-23T22:13:57.469Z,4.40
2022-09-23T22:16:25.002Z,4.30
2022-09-23T22:18:55.876Z,5.20
2022-09-23T22:21:23.367Z,4.63
2022-09-23T22:23:58.105Z,4.70
2022-09-23T22:26:25.124Z,5.07
2022-09-23T22:29:10.304Z,6.10
2022-09-23T22:31:55.467Z,6.53
2022-09-23T22:34:48.439Z,5.97
2022-09-23T22:37:20.714Z,5.50
2022-09-23T22:39:47.423Z,4.70
2022-09-23T22:42:14.499Z,5.63
2022-09-23T22:44:41.116Z,4.60
2022-09-23T22:47:09.255Z,5.30
2022-09-23T22:49:36.053Z,4.87
2022-09-23T22:52:07.087Z,5.00
2022-09-23T22:54:34.362Z,5.40
2022-09-23T22:57:03.950Z,5.60
2022-09-23T22:59:30.622Z,5.60
2022-09-23T23:01:59.155Z,5.43
2022-09-23T23:04:25.728Z,5.13
2022-09-23T23:06:52.476Z,5.40
2022-09-23T23:09:19.235Z,5.90
2022-09-23T23:11:47.267Z,5.70
2022-09-23T23:14:16.606Z,5.50
2022-09-23T23:16:45.201Z,5.43
2022-09-23T23:19:14.078Z,5.43
2022-09-23T23:21:43.509Z,5.77
2022-09-23T23:24:21.931Z,5.50
2022-09-23T23:26:49.154Z,4.87
2022-09-23T23:29:18.613Z,5.17
2022-09-23T23:31:45.500Z,5.33
2022-09-23T23:34:14.306Z,4.97
2022-09-23T23:36:41.482Z,4.87
2022-09-23T23:39:08.626Z,5.10
2022-09-23T23:41:35.685Z,5.40
2022-09-23T23:44:02.947Z,5.67
2022-09-23T23:46:31.468Z,5.17
2022-09-23T23:48:59.680Z,5.50
2022-09-23T23:51:27.321Z,5.47
2022-09-23T23:53:54.805Z,4.03
2022-09-23T23:56:24.378Z,5.23
2022-09-23T23:58:59.687Z,5.17
